Time;durP1;ratioP1;P1;durP2;ratioP2;P2;SDS_P1;SDS_P2;PMS_P1;PMS_P2;Temp;Humidity;BMP_temperature;BMP_pressure;BME280_temperature;BME280_humidity;BME280_pressure;Samples;Min_cycle;Max_cycle;Signal;HPM_P1;HPM_P2
2023/12/17 00:00:46;;;;;;;12.52;6.75;;;10.40;99.90;;;;;;5004607;28;20537;-83
2023/12/17 00:03:12;;;;;;;12.65;6.47;;;10.40;99.90;;;;;;5003015;28;20086;-84
2023/12/17 00:05:38;;;;;;;12.73;7.13;;;10.40;99.90;;;;;;5002288;28;20081;-83
2023/12/17 00:08:04;;;;;;;15.25;7.40;;;10.40;99.90;;;;;;4987204;28;20037;-83
2023/12/17 00:10:29;;;;;;;13.07;6.53;;;10.40;99.90;;;;;;5003242;28;20050;-83
2023/12/17 00:12:55;;;;;;;12.15;6.40;;;10.40;99.90;;;;;;5004579;28;20027;-84
2023/12/17 00:15:21;;;;;;;12.07;6.82;;;10.40;99.90;;;;;;5003849;28;20026;-83
2023/12/17 00:17:47;;;;;;;11.80;6.03;;;10.40;99.90;;;;;;5002752;28;20025;-83
2023/12/17 00:20:13;;;;;;;11.45;5.93;;;10.40;99.90;;;;;;5002669;28;20036;-83
2023/12/17 00:22:39;;;;;;;10.75;6.90;;;10.40;99.90;;;;;;4985915;28;20022;-83
2023/12/17 00:25:05;;;;;;;11.73;6.60;;;10.50;99.90;;;;;;4986909;28;20029;-83
2023/12/17 00:27:31;;;;;;;11.65;6.82;;;10.40;99.90;;;;;;5001969;28;20018;-83
2023/12/17 00:29:57;;;;;;;12.90;7.28;;;10.40;99.90;;;;;;5004223;28;20049;-82
2023/12/17 00:32:22;;;;;;;14.07;7.72;;;10.50;99.90;;;;;;5002147;28;20023;-83
2023/12/17 00:34:48;;;;;;;11.95;7.00;;;10.50;99.90;;;;;;4985499;28;20035;-82
2023/12/17 00:37:14;;;;;;;11.10;6.47;;;10.40;99.90;;;;;;5003491;28;20022;-83
2023/12/17 00:39:39;;;;;;;12.95;7.03;;;10.50;99.90;;;;;;5003609;28;20038;-84
2023/12/17 00:42:05;;;;;;;13.02;5.93;;;10.50;99.90;;;;;;5002446;28;20026;-84
2023/12/17 00:44:31;;;;;;;13.77;6.30;;;10.40;99.90;;;;;;4985057;28;20026;-83
2023/12/17 00:46:56;;;;;;;11.55;5.68;;;10.40;99.90;;;;;;5003786;28;20034;-84
2023/12/17 00:49:22;;;;;;;11.48;5.47;;;10.50;99.90;;;;;;5002880;28;20158;-83
2023/12/17 00:51:48;;;;;;;9.55;5.38;;;10.50;99.90;;;;;;5003693;28;20033;-84
2023/12/17 00:54:13;;;;;;;12.70;5.90;;;10.50;99.90;;;;;;5003329;28;20035;-83
2023/12/17 00:56:39;;;;;;;10.52;5.28;;;10.40;99.90;;;;;;5002007;28;20062;-84
2023/12/17 00:59:05;;;;;;;11.43;5.68;;;10.40;99.90;;;;;;4985904;28;20026;-83
2023/12/17 01:01:30;;;;;;;12.73;6.20;;;10.40;99.90;;;;;;4985322;28;20022;-83
2023/12/17 01:03:56;;;;;;;12.55;6.38;;;10.40;99.90;;;;;;4986122;28;20033;-83
2023/12/17 01:06:21;;;;;;;12.02;6.40;;;10.50;99.90;;;;;;5002686;28;20045;-83
2023/12/17 01:08:48;;;;;;;13.88;6.63;;;10.40;99.90;;;;;;5004027;28;20041;-83
2023/12/17 01:11:13;;;;;;;11.70;6.35;;;10.50;99.90;;;;;;5001692;28;20039;-83
2023/12/17 01:13:39;;;;;;;13.00;6.70;;;10.40;99.90;;;;;;5003223;28;20026;-83
2023/12/17 01:16:05;;;;;;;11.63;6.07;;;10.50;99.90;;;;;;5003509;28;20061;-83
2023/12/17 01:18:31;;;;;;;10.57;5.65;;;10.50;99.90;;;;;;4985151;28;20038;-83
2023/12/17 01:20:59;;;;;;;14.98;6.70;;;10.50;99.90;;;;;;4985974;28;20050;-83
2023/12/17 01:23:25;;;;;;;12.23;7.05;;;10.50;99.90;;;;;;4997692;28;20098;-83
2023/12/17 01:25:50;;;;;;;10.73;6.20;;;10.50;99.90;;;;;;4984071;28;20030;-83
2023/12/17 01:28:17;;;;;;;10.35;5.47;;;10.50;99.90;;;;;;4982097;28;20459;-83
2023/12/17 01:30:43;;;;;;;11.73;5.85;;;10.50;99.90;;;;;;4982070;28;20034;-82
2023/12/17 01:33:08;;;;;;;10.82;5.30;;;10.50;99.90;;;;;;4982235;28;20423;-83
2023/12/17 01:35:34;;;;;;;9.60;5.45;;;10.50;99.90;;;;;;4981519;28;20122;-83
2023/12/17 01:38:00;;;;;;;10.02;5.72;;;10.50;99.90;;;;;;4982672;28;20449;-83
2023/12/17 01:40:25;;;;;;;9.30;5.10;;;10.50;99.90;;;;;;4981588;28;20019;-83
2023/12/17 01:42:55;;;;;;;10.93;5.07;;;10.50;99.90;;;;;;4982344;28;20554;-84
2023/12/17 01:45:21;;;;;;;10.18;5.63;;;10.50;99.90;;;;;;4998248;28;20031;-84
2023/12/17 01:47:47;;;;;;;11.13;5.05;;;10.50;99.90;;;;;;4982284;28;20462;-84
2023/12/17 01:50:13;;;;;;;12.18;5.53;;;10.50;99.90;;;;;;4982690;28;20062;-84
2023/12/17 01:52:39;;;;;;;11.32;5.43;;;10.50;99.90;;;;;;4982017;28;20070;-84
2023/12/17 01:55:07;;;;;;;10.70;5.75;;;10.50;99.90;;;;;;4982368;28;20487;-84
2023/12/17 01:57:33;;;;;;;10.57;5.05;;;10.50;99.90;;;;;;4999774;28;20033;-84
2023/12/17 01:59:58;;;;;;;12.35;5.05;;;10.50;99.90;;;;;;4986642;28;20022;-84
2023/12/17 02:02:24;;;;;;;14.07;6.05;;;10.50;99.90;;;;;;4986702;28;20111;-84
2023/12/17 02:04:50;;;;;;;9.30;4.95;;;10.50;99.90;;;;;;4985765;28;20134;-84
2023/12/17 02:07:16;;;;;;;8.23;4.50;;;10.50;99.90;;;;;;4987090;28;20023;-83
2023/12/17 02:09:42;;;;;;;9.35;4.85;;;10.50;99.90;;;;;;4986819;28;20027;-83
2023/12/17 02:12:15;;;;;;;11.20;5.75;;;10.50;99.90;;;;;;4986072;28;20026;-83
2023/12/17 02:14:40;;;;;;;10.88;5.28;;;10.50;99.90;;;;;;4984789;28;20031;-84
2023/12/17 02:17:06;;;;;;;8.93;4.93;;;10.50;99.90;;;;;;5001886;28;20038;-83
2023/12/17 02:19:32;;;;;;;12.15;5.22;;;10.50;99.90;;;;;;4985243;28;20545;-83
2023/12/17 02:21:58;;;;;;;12.85;4.93;;;10.50;99.90;;;;;;4985542;28;20043;-83
2023/12/17 02:24:23;;;;;;;13.02;5.70;;;10.50;99.90;;;;;;5000342;28;20066;-83
2023/12/17 02:26:49;;;;;;;11.57;5.72;;;10.50;99.90;;;;;;4988380;28;20026;-84
2023/12/17 02:29:14;;;;;;;9.00;5.07;;;10.50;99.90;;;;;;5006417;28;20061;-84
2023/12/17 02:31:40;;;;;;;10.60;5.20;;;10.50;99.90;;;;;;4987828;28;20033;-84
2023/12/17 02:34:06;;;;;;;8.88;4.65;;;10.50;99.90;;;;;;4988414;28;20022;-84
2023/12/17 02:36:31;;;;;;;11.43;5.57;;;10.50;99.90;;;;;;5005478;28;20035;-84
2023/12/17 02:38:57;;;;;;;12.55;5.68;;;10.50;99.90;;;;;;4988362;28;20044;-83
2023/12/17 02:41:22;;;;;;;13.15;6.85;;;10.50;99.90;;;;;;4988271;28;20045;-84
2023/12/17 02:43:49;;;;;;;12.60;6.55;;;10.50;99.90;;;;;;5005994;28;20061;-83
2023/12/17 02:46:14;;;;;;;14.77;7.57;;;10.50;99.90;;;;;;5004910;28;20018;-83
2023/12/17 02:48:41;;;;;;;15.23;7.72;;;10.50;99.90;;;;;;5005495;28;20026;-83
2023/12/17 02:51:07;;;;;;;14.23;6.95;;;10.50;99.90;;;;;;5006108;28;20406;-83
2023/12/17 02:53:32;;;;;;;15.32;8.10;;;10.50;99.90;;;;;;5004924;28;20026;-83
2023/12/17 02:55:59;;;;;;;15.80;8.52;;;10.50;99.90;;;;;;4988380;28;20045;-84
2023/12/17 02:58:25;;;;;;;16.35;8.75;;;10.60;99.90;;;;;;5005325;28;20317;-83
2023/12/17 03:00:51;;;;;;;16.45;8.52;;;10.50;99.90;;;;;;4987697;28;20027;-84
2023/12/17 03:03:16;;;;;;;17.20;8.88;;;10.50;99.90;;;;;;5005746;28;20471;-83
2023/12/17 03:05:42;;;;;;;14.82;8.35;;;10.50;99.90;;;;;;4987410;28;20018;-84
2023/12/17 03:08:08;;;;;;;14.27;8.27;;;10.50;99.90;;;;;;5005391;28;20018;-83
2023/12/17 03:10:33;;;;;;;16.65;7.50;;;10.50;99.90;;;;;;5003439;28;20037;-84
2023/12/17 03:12:59;;;;;;;19.55;8.60;;;10.50;99.90;;;;;;5005339;28;20055;-83
2023/12/17 03:15:24;;;;;;;13.55;7.05;;;10.50;99.90;;;;;;5005077;28;20038;-84
2023/12/17 03:17:50;;;;;;;16.77;8.20;;;10.50;99.90;;;;;;5005442;28;20026;-84
2023/12/17 03:20:16;;;;;;;15.25;8.15;;;10.50;99.90;;;;;;4987466;28;20026;-83
2023/12/17 03:22:42;;;;;;;14.18;7.70;;;10.50;99.90;;;;;;5004789;28;20023;-83
2023/12/17 03:25:08;;;;;;;16.42;8.00;;;10.50;99.90;;;;;;4988081;28;20026;-84
2023/12/17 03:27:33;;;;;;;14.57;7.22;;;10.50;99.90;;;;;;4986720;28;20046;-83
2023/12/17 03:29:59;;;;;;;14.32;6.50;;;10.50;99.90;;;;;;4988001;28;20022;-84
2023/12/17 03:32:25;;;;;;;14.70;6.40;;;10.50;99.90;;;;;;4987088;28;20026;-84
2023/12/17 03:34:50;;;;;;;12.98;6.70;;;10.50;99.90;;;;;;4987117;28;20042;-85
2023/12/17 03:37:16;;;;;;;16.73;6.10;;;10.50;99.90;;;;;;5004886;28;20454;-85
2023/12/17 03:39:42;;;;;;;12.00;5.50;;;10.50;99.90;;;;;;5004582;28;20022;-85
2023/12/17 03:42:07;;;;;;;11.10;5.50;;;10.50;99.90;;;;;;4987386;28;20036;-84
2023/12/17 03:44:33;;;;;;;14.18;5.72;;;10.50;99.90;;;;;;4986632;28;20049;-84
2023/12/17 03:46:59;;;;;;;13.10;5.90;;;10.50;99.90;;;;;;5004910;28;20041;-85
2023/12/17 03:49:25;;;;;;;13.23;6.60;;;10.50;99.90;;;;;;4986546;28;20026;-84
2023/12/17 03:51:50;;;;;;;12.93;7.00;;;10.50;99.90;;;;;;4987278;28;20093;-84
2023/12/17 03:54:16;;;;;;;15.63;7.00;;;10.50;99.90;;;;;;4986915;28;20482;-85
2023/12/17 03:56:50;;;;;;;13.45;6.60;;;10.50;99.90;;;;;;4986763;28;20491;-84
2023/12/17 03:59:16;;;;;;;13.68;5.95;;;10.50;99.90;;;;;;4986968;28;20062;-85
2023/12/17 04:01:48;;;;;;;11.60;5.95;;;10.50;99.90;;;;;;5004192;28;20030;-84
2023/12/17 04:04:14;;;;;;;13.27;5.15;;;10.50;99.90;;;;;;5003634;28;20506;-84
2023/12/17 04:06:43;;;;;;;11.52;5.03;;;10.50;99.90;;;;;;5004130;28;20529;-85
2023/12/17 04:09:10;;;;;;;10.13;4.43;;;10.50;99.90;;;;;;4986986;28;20091;-85
2023/12/17 04:11:36;;;;;;;8.25;4.13;;;10.50;99.90;;;;;;4986471;28;20042;-84
2023/12/17 04:14:02;;;;;;;8.95;4.78;;;10.50;99.90;;;;;;4986142;28;20022;-85
2023/12/17 04:16:27;;;;;;;11.82;4.50;;;10.40;99.90;;;;;;4987050;28;20026;-84
2023/12/17 04:18:53;;;;;;;9.30;5.40;;;10.40;99.90;;;;;;5001954;28;20388;-84
2023/12/17 04:21:19;;;;;;;10.98;5.78;;;10.40;99.90;;;;;;4986613;28;20454;-85
2023/12/17 04:23:44;;;;;;;11.85;6.03;;;10.40;99.90;;;;;;4982642;28;20041;-83
2023/12/17 04:26:13;;;;;;;11.18;5.85;;;10.40;99.90;;;;;;4984768;28;20034;-83
2023/12/17 04:28:39;;;;;;;10.65;5.97;;;10.40;99.90;;;;;;4983305;28;20034;-83
2023/12/17 04:31:05;;;;;;;10.73;5.93;;;10.40;99.90;;;;;;4999335;28;20049;-84
2023/12/17 04:33:31;;;;;;;11.77;6.78;;;10.30;99.90;;;;;;4983146;28;20031;-84
2023/12/17 04:35:57;;;;;;;14.70;7.68;;;10.30;99.90;;;;;;4983231;28;20038;-81
2023/12/17 04:38:23;;;;;;;13.82;7.40;;;10.30;99.90;;;;;;4984865;28;20030;-84
2023/12/17 04:40:49;;;;;;;11.85;6.65;;;10.30;99.90;;;;;;4982231;28;20031;-84
2023/12/17 04:43:15;;;;;;;13.50;6.78;;;10.30;99.90;;;;;;4983189;28;20345;-84
2023/12/17 04:45:41;;;;;;;12.25;6.40;;;10.30;99.90;;;;;;4984476;28;20030;-84
2023/12/17 04:48:07;;;;;;;11.27;6.57;;;10.20;99.90;;;;;;4982816;28;20029;-84
2023/12/17 04:50:32;;;;;;;11.60;6.23;;;10.20;99.90;;;;;;4984795;28;20034;-84
2023/12/17 04:52:58;;;;;;;13.40;7.00;;;10.20;99.90;;;;;;4982490;28;20506;-84
2023/12/17 04:55:24;;;;;;;14.60;7.88;;;10.20;99.90;;;;;;4982778;28;20511;-85
2023/12/17 04:57:50;;;;;;;12.98;7.85;;;10.20;99.90;;;;;;4966171;28;20074;-84
2023/12/17 05:00:16;;;;;;;16.38;8.50;;;10.20;99.90;;;;;;4999268;28;20034;-85
2023/12/17 05:02:41;;;;;;;17.73;9.00;;;10.20;99.90;;;;;;4983728;28;20026;-84
2023/12/17 05:05:07;;;;;;;16.67;8.55;;;10.20;99.90;;;;;;4982815;28;20019;-83
2023/12/17 05:07:33;;;;;;;23.33;10.27;;;10.20;99.90;;;;;;4998868;28;20031;-84
2023/12/17 05:09:59;;;;;;;17.57;10.20;;;10.10;99.90;;;;;;4981927;28;20031;-84
2023/12/17 05:12:27;;;;;;;18.10;9.50;;;10.10;99.90;;;;;;4999072;28;20023;-84
2023/12/17 05:14:52;;;;;;;19.45;9.48;;;10.10;99.90;;;;;;4981690;28;20043;-85
2023/12/17 05:17:18;;;;;;;20.67;11.07;;;10.10;99.90;;;;;;4984236;28;20046;-84
2023/12/17 05:19:44;;;;;;;21.37;11.77;;;10.10;99.90;;;;;;4983695;28;20033;-85
2023/12/17 05:22:09;;;;;;;18.42;11.13;;;10.10;99.90;;;;;;4998669;28;20054;-85
2023/12/17 05:24:35;;;;;;;19.80;10.43;;;10.10;99.90;;;;;;4998307;28;20078;-84
2023/12/17 05:27:01;;;;;;;17.00;10.02;;;10.20;99.90;;;;;;4982227;28;20027;-84
2023/12/17 05:29:26;;;;;;;21.48;11.27;;;10.20;99.90;;;;;;4982740;28;20058;-84
2023/12/17 05:31:52;;;;;;;17.83;11.02;;;10.10;99.90;;;;;;5000280;28;20034;-84
2023/12/17 05:34:17;;;;;;;21.27;11.77;;;10.20;99.90;;;;;;4986864;28;20060;-84
2023/12/17 05:36:43;;;;;;;26.42;13.43;;;10.20;99.90;;;;;;4986479;28;20027;-84
2023/12/17 05:39:09;;;;;;;26.00;13.80;;;10.20;99.90;;;;;;5002829;28;20027;-84
2023/12/17 05:41:34;;;;;;;26.38;14.35;;;10.20;99.90;;;;;;4986594;28;20022;-85
2023/12/17 05:44:00;;;;;;;28.55;15.48;;;10.20;99.90;;;;;;5002476;28;20027;-85
2023/12/17 05:46:26;;;;;;;25.40;14.25;;;10.20;99.90;;;;;;4986214;28;20015;-84
2023/12/17 05:48:52;;;;;;;26.42;15.07;;;10.20;99.90;;;;;;4987133;28;20038;-84
2023/12/17 05:51:19;;;;;;;29.92;17.48;;;10.20;99.90;;;;;;4986608;28;20109;-84
2023/12/17 05:53:45;;;;;;;28.67;16.37;;;10.20;99.90;;;;;;4986681;28;20015;-85
2023/12/17 05:56:11;;;;;;;26.60;15.38;;;10.20;99.90;;;;;;4986219;28;20396;-84
2023/12/17 05:58:37;;;;;;;33.22;18.13;;;10.20;99.90;;;;;;5002246;28;20058;-84
2023/12/17 06:01:03;;;;;;;30.63;16.53;;;10.20;99.90;;;;;;4986911;28;20220;-85
2023/12/17 06:03:30;;;;;;;29.15;16.88;;;10.20;99.90;;;;;;4986034;28;20034;-84
2023/12/17 06:05:55;;;;;;;29.63;16.52;;;10.30;99.90;;;;;;4986908;28;20041;-84
2023/12/17 06:08:21;;;;;;;27.58;15.95;;;10.30;99.90;;;;;;5002096;28;20030;-84
2023/12/17 06:10:47;;;;;;;28.67;15.40;;;10.20;99.90;;;;;;4984988;28;20027;-84
2023/12/17 06:13:13;;;;;;;27.98;15.95;;;10.20;99.90;;;;;;4986142;28;20053;-84
2023/12/17 06:15:39;;;;;;;26.73;15.55;;;10.20;99.90;;;;;;4985502;28;20055;-84
2023/12/17 06:18:05;;;;;;;29.30;16.13;;;10.20;99.90;;;;;;4985699;28;20023;-84
2023/12/17 06:20:30;;;;;;;31.60;16.25;;;10.20;99.90;;;;;;4985669;28;20508;-84
2023/12/17 06:22:56;;;;;;;28.40;15.07;;;10.20;99.90;;;;;;5002815;28;20022;-84
2023/12/17 06:25:22;;;;;;;28.70;16.17;;;10.20;99.90;;;;;;5005536;28;20026;-83
2023/12/17 06:27:52;;;;;;;29.73;15.75;;;10.20;99.90;;;;;;5004398;28;20042;-83
2023/12/17 06:30:18;;;;;;;31.95;16.08;;;10.20;99.90;;;;;;5005212;28;20045;-83
2023/12/17 06:32:44;;;;;;;29.00;15.82;;;10.20;99.90;;;;;;4989296;28;20022;-84
2023/12/17 06:35:10;;;;;;;28.17;15.82;;;10.20;99.90;;;;;;4988057;28;20485;-84
2023/12/17 06:37:35;;;;;;;32.25;17.92;;;10.20;99.90;;;;;;5005489;28;20022;-83
2023/12/17 06:40:01;;;;;;;25.15;14.30;;;10.20;99.90;;;;;;5005634;28;20018;-84
2023/12/17 06:42:27;;;;;;;26.13;14.45;;;10.20;99.90;;;;;;5005396;28;20075;-83
2023/12/17 06:44:52;;;;;;;24.63;14.73;;;10.10;99.90;;;;;;4987932;28;20563;-83
2023/12/17 06:47:18;;;;;;;24.50;13.63;;;10.20;99.90;;;;;;5004977;28;20069;-84
2023/12/17 06:49:44;;;;;;;25.10;14.25;;;10.20;99.90;;;;;;4988748;28;20406;-83
2023/12/17 06:52:10;;;;;;;24.93;13.67;;;10.20;99.90;;;;;;5014670;28;20038;-83
2023/12/17 06:54:36;;;;;;;28.58;15.02;;;10.20;99.90;;;;;;5004229;28;20040;-83
2023/12/17 06:57:02;;;;;;;24.87;13.13;;;10.10;99.90;;;;;;5021803;28;20018;-83
2023/12/17 06:59:27;;;;;;;21.90;13.10;;;10.10;99.90;;;;;;5025531;28;20424;-84
2023/12/17 07:01:53;;;;;;;24.10;13.85;;;10.10;99.90;;;;;;5024708;28;20048;-83
2023/12/17 07:04:18;;;;;;;23.38;12.43;;;10.10;99.90;;;;;;5025805;28;20038;-84
2023/12/17 07:06:44;;;;;;;23.95;14.05;;;10.10;99.90;;;;;;5024579;28;20022;-83
2023/12/17 07:09:10;;;;;;;25.88;14.07;;;10.10;99.90;;;;;;5025360;28;20049;-83
2023/12/17 07:11:35;;;;;;;27.33;14.65;;;10.10;99.90;;;;;;5006877;28;20049;-84
2023/12/17 07:14:01;;;;;;;24.30;14.25;;;10.10;99.90;;;;;;5006845;28;20030;-83
2023/12/17 07:16:28;;;;;;;22.42;12.98;;;10.10;99.90;;;;;;5007359;28;20038;-84
2023/12/17 07:18:54;;;;;;;22.38;12.85;;;10.10;99.90;;;;;;5024547;28;20061;-83
2023/12/17 07:21:20;;;;;;;21.33;12.88;;;10.10;99.90;;;;;;5025673;28;20030;-81
2023/12/17 07:23:46;;;;;;;22.97;13.63;;;10.10;99.90;;;;;;5006211;28;20457;-81
2023/12/17 07:26:11;;;;;;;26.93;14.70;;;10.10;99.90;;;;;;5024886;28;20022;-81
2023/12/17 07:28:37;;;;;;;24.83;15.20;;;10.10;99.90;;;;;;5024401;28;20115;-81
2023/12/17 07:31:04;;;;;;;26.20;15.85;;;10.00;99.90;;;;;;5043794;28;20029;-81
2023/12/17 07:33:29;;;;;;;29.67;16.25;;;10.00;99.90;;;;;;5044648;28;20021;-81
2023/12/17 07:35:55;;;;;;;27.10;15.00;;;10.00;99.90;;;;;;5022350;28;20036;-80
2023/12/17 07:38:21;;;;;;;26.27;15.33;;;10.10;99.90;;;;;;5006842;28;20021;-81
2023/12/17 07:40:47;;;;;;;25.30;14.90;;;10.10;99.90;;;;;;5006979;28;20026;-80
2023/12/17 07:43:12;;;;;;;32.13;17.45;;;10.10;99.90;;;;;;5006099;28;20088;-80
2023/12/17 07:45:38;;;;;;;33.85;16.65;;;10.10;99.90;;;;;;5005808;28;20026;-81
2023/12/17 07:48:04;;;;;;;33.47;17.80;;;10.10;99.90;;;;;;5005837;28;20018;-81
2023/12/17 07:50:29;;;;;;;35.33;20.65;;;10.10;99.90;;;;;;5006135;28;20037;-81
2023/12/17 07:52:55;;;;;;;41.35;22.05;;;10.10;99.90;;;;;;5005806;28;20493;-81
2023/12/17 07:55:22;;;;;;;36.83;20.97;;;10.10;99.90;;;;;;5005035;28;20061;-81
2023/12/17 07:57:48;;;;;;;40.97;21.17;;;10.10;99.90;;;;;;5022048;28;20080;-81
2023/12/17 08:00:14;;;;;;;40.05;21.92;;;10.10;99.90;;;;;;5023174;28;20033;-82
2023/12/17 08:02:40;;;;;;;40.15;22.40;;;10.00;99.90;;;;;;5023408;28;20029;-82
2023/12/17 08:05:06;;;;;;;37.57;20.90;;;10.00;99.90;;;;;;5005900;28;20068;-82
2023/12/17 08:07:37;;;;;;;43.17;23.87;;;10.00;99.90;;;;;;5005869;28;20113;-81
2023/12/17 08:10:04;;;;;;;44.33;24.23;;;10.00;99.90;;;;;;5005523;28;20033;-81
2023/12/17 08:12:29;;;;;;;42.87;22.87;;;10.00;99.90;;;;;;5006149;28;20021;-82
2023/12/17 08:14:55;;;;;;;38.23;20.90;;;10.00;99.90;;;;;;5023314;28;20109;-82
2023/12/17 08:17:20;;;;;;;42.07;22.50;;;10.00;99.90;;;;;;5024456;28;20542;-81
2023/12/17 08:19:46;;;;;;;37.63;20.90;;;10.00;99.90;;;;;;5005460;28;20430;-81
2023/12/17 08:22:12;;;;;;;40.30;22.37;;;10.00;99.90;;;;;;5024104;28;20029;-82
2023/12/17 08:24:37;;;;;;;38.75;19.63;;;10.00;99.90;;;;;;5023477;28;20053;-81
2023/12/17 08:27:04;;;;;;;38.60;20.92;;;10.00;99.90;;;;;;5023861;28;20037;-81
2023/12/17 08:29:29;;;;;;;38.50;20.77;;;9.90;99.90;;;;;;5006169;28;20096;-81
2023/12/17 08:31:58;;;;;;;39.70;21.40;;;9.90;99.90;;;;;;5005200;28;20022;-81
2023/12/17 08:34:31;;;;;;;39.17;21.47;;;9.90;99.90;;;;;;5023479;28;20458;-82
2023/12/17 08:36:57;;;;;;;39.25;19.67;;;9.90;99.90;;;;;;5005434;28;20018;-82
2023/12/17 08:39:23;;;;;;;35.17;19.57;;;9.90;99.90;;;;;;5005655;28;20045;-82
2023/12/17 08:41:53;;;;;;;37.93;20.63;;;9.90;99.90;;;;;;5005468;28;20469;-82
2023/12/17 08:44:23;;;;;;;38.17;19.00;;;9.90;99.90;;;;;;5023067;28;20478;-82
2023/12/17 08:46:49;;;;;;;36.42;19.27;;;9.90;99.90;;;;;;5023063;28;20057;-81
2023/12/17 08:49:15;;;;;;;33.03;17.40;;;9.90;99.90;;;;;;5005064;28;20026;-81
2023/12/17 08:51:41;;;;;;;35.40;19.00;;;9.90;99.90;;;;;;5005930;28;20058;-81
2023/12/17 08:54:10;;;;;;;39.13;20.17;;;9.90;99.90;;;;;;5004574;28;20026;-81
2023/12/17 08:56:36;;;;;;;34.37;19.27;;;9.90;99.90;;;;;;5023406;28;20026;-82
2023/12/17 08:59:02;;;;;;;30.93;17.97;;;9.90;99.90;;;;;;5005121;28;20018;-81
2023/12/17 09:01:28;;;;;;;36.25;17.67;;;9.90;99.90;;;;;;5005010;28;20498;-81
2023/12/17 09:03:54;;;;;;;30.03;16.87;;;9.90;99.90;;;;;;5023422;28;20137;-82
2023/12/17 09:06:19;;;;;;;33.45;17.30;;;9.90;99.90;;;;;;5022190;28;20037;-81
2023/12/17 09:08:45;;;;;;;27.23;17.13;;;9.90;99.90;;;;;;5005570;28;20076;-81
2023/12/17 09:11:13;;;;;;;31.50;15.77;;;9.90;99.90;;;;;;5003692;28;20064;-82
2023/12/17 09:13:38;;;;;;;27.63;15.57;;;9.90;99.90;;;;;;5023175;28;20034;-82
2023/12/17 09:16:05;;;;;;;35.40;17.02;;;9.90;99.90;;;;;;5004921;28;20053;-81
2023/12/17 09:18:31;;;;;;;27.30;14.47;;;9.90;99.90;;;;;;5005287;28;20486;-81
2023/12/17 09:20:57;;;;;;;28.58;14.85;;;9.90;99.90;;;;;;5022400;28;20033;-81
2023/12/17 09:23:22;;;;;;;26.58;15.40;;;9.90;99.90;;;;;;5004366;28;20046;-82
2023/12/17 09:25:48;;;;;;;27.70;15.80;;;9.90;99.90;;;;;;5023387;28;20029;-81
2023/12/17 09:28:14;;;;;;;28.30;15.13;;;9.90;99.90;;;;;;5004585;28;20018;-82
2023/12/17 09:30:39;;;;;;;24.23;14.30;;;9.80;99.90;;;;;;5004882;28;20101;-82
2023/12/17 09:33:06;;;;;;;24.57;13.33;;;9.90;99.90;;;;;;5005033;28;20018;-82
2023/12/17 09:35:31;;;;;;;23.75;12.43;;;9.90;99.90;;;;;;5004275;28;20133;-82
2023/12/17 09:37:58;;;;;;;22.67;12.90;;;9.80;99.90;;;;;;5023015;28;20030;-82
2023/12/17 09:40:24;;;;;;;22.73;12.07;;;9.80;99.90;;;;;;5022488;28;20105;-80
2023/12/17 09:42:52;;;;;;;21.90;11.90;;;9.80;99.90;;;;;;5005468;28;20033;-82
2023/12/17 09:45:18;;;;;;;20.53;11.50;;;9.80;99.90;;;;;;5021624;28;20022;-81
2023/12/17 09:47:44;;;;;;;25.90;12.90;;;9.90;99.90;;;;;;5003654;28;20022;-81
2023/12/17 09:50:10;;;;;;;24.27;12.40;;;9.90;99.90;;;;;;5021472;28;20073;-81
2023/12/17 09:52:43;;;;;;;21.97;11.03;;;9.90;99.90;;;;;;5000749;28;20030;-82
2023/12/17 09:55:10;;;;;;;19.93;11.57;;;9.90;99.90;;;;;;5023232;28;20038;-82
2023/12/17 09:57:36;;;;;;;20.27;12.13;;;9.90;99.90;;;;;;5021934;28;20080;-81
2023/12/17 10:00:03;;;;;;;23.53;12.30;;;9.90;99.90;;;;;;5005169;28;20026;-81
2023/12/17 10:02:28;;;;;;;20.60;12.13;;;9.90;99.90;;;;;;5004209;28;20040;-80
2023/12/17 10:04:54;;;;;;;19.70;11.50;;;9.90;99.90;;;;;;5005151;28;20021;-82
2023/12/17 10:07:20;;;;;;;20.33;12.00;;;9.90;99.90;;;;;;5005097;28;20018;-81
2023/12/17 10:09:45;;;;;;;21.73;12.47;;;9.90;99.90;;;;;;5004032;28;20149;-81
2023/12/17 10:12:11;;;;;;;22.00;12.23;;;9.90;99.90;;;;;;5021989;28;20053;-82
2023/12/17 10:14:40;;;;;;;23.53;13.10;;;9.90;99.90;;;;;;5003617;28;20037;-81
2023/12/17 10:17:06;;;;;;;23.23;13.23;;;9.90;99.90;;;;;;5005009;28;20022;-81
2023/12/17 10:19:31;;;;;;;18.13;11.07;;;9.80;99.90;;;;;;5007513;28;20029;-81
2023/12/17 10:21:57;;;;;;;21.67;12.30;;;9.80;99.90;;;;;;5026448;28;20030;-82
2023/12/17 10:24:38;;;;;;;21.50;10.47;;;9.80;99.90;;;;;;5008021;28;20038;-82
2023/12/17 10:27:20;;;;;;;19.33;11.30;;;9.80;99.90;;;;;;5008105;28;20061;-82
2023/12/17 10:29:56;;;;;;;18.37;10.40;;;9.80;99.90;;;;;;5034108;28;20082;-81
2023/12/17 10:32:24;;;;;;;20.97;12.57;;;9.70;99.90;;;;;;5027069;28;20029;-82
2023/12/17 10:34:50;;;;;;;17.13;10.20;;;9.70;99.90;;;;;;5027357;28;20085;-81
2023/12/17 10:37:19;;;;;;;16.87;10.67;;;9.70;99.90;;;;;;5027325;28;20026;-81
2023/12/17 10:39:49;;;;;;;16.07;10.17;;;9.70;99.90;;;;;;5027101;28;20716;-82
2023/12/17 10:42:17;;;;;;;16.07;9.80;;;9.60;99.90;;;;;;5027086;28;20036;-82
2023/12/17 10:44:47;;;;;;;15.63;9.60;;;9.60;99.90;;;;;;5026887;28;20445;-81
2023/12/17 10:47:20;;;;;;;17.43;10.63;;;9.60;99.90;;;;;;5045877;28;20025;-81
2023/12/17 10:49:46;;;;;;;18.43;10.27;;;9.60;99.90;;;;;;5044803;28;20422;-80
2023/12/17 10:52:12;;;;;;;16.60;9.97;;;9.60;99.90;;;;;;5027565;28;20025;-81
2023/12/17 10:54:39;;;;;;;16.00;10.10;;;9.60;99.90;;;;;;5026918;28;20035;-81
2023/12/17 10:57:09;;;;;;;15.47;9.53;;;9.50;99.90;;;;;;5026960;28;20033;-84
2023/12/17 10:59:37;;;;;;;19.07;11.43;;;9.50;99.90;;;;;;5045203;28;20030;-82
2023/12/17 11:02:05;;;;;;;17.83;10.27;;;9.40;99.90;;;;;;5044667;28;20029;-83
2023/12/17 11:04:31;;;;;;;18.33;10.70;;;9.40;99.90;;;;;;5027342;28;20509;-80
2023/12/17 11:06:57;;;;;;;18.57;10.60;;;9.40;99.90;;;;;;5026876;28;20017;-81
2023/12/17 11:09:24;;;;;;;19.67;12.13;;;9.30;99.90;;;;;;5044957;28;20029;-87
2023/12/17 11:11:51;;;;;;;18.37;11.07;;;9.30;99.90;;;;;;5026637;28;20084;-81
2023/12/17 11:14:17;;;;;;;18.90;11.37;;;9.30;99.90;;;;;;5026809;28;20045;-83
2023/12/17 11:16:43;;;;;;;19.47;11.70;;;9.30;99.90;;;;;;5027146;28;20026;-79
2023/12/17 11:19:12;;;;;;;21.77;12.67;;;9.30;99.90;;;;;;5026353;28;20029;-82
2023/12/17 11:21:41;;;;;;;20.33;12.90;;;9.30;99.90;;;;;;5024743;28;20163;-81
2023/12/17 11:24:07;;;;;;;21.30;13.40;;;9.30;99.90;;;;;;5006095;28;20095;-81
2023/12/17 11:26:44;;;;;;;21.13;12.83;;;9.30;99.90;;;;;;5005791;28;20018;-81
2023/12/17 11:29:38;;;;;;;22.37;13.87;;;9.30;99.90;;;;;;5005404;28;20053;-80
2023/12/17 11:32:05;;;;;;;20.53;12.17;;;9.40;99.90;;;;;;5023238;28;20018;-81
2023/12/17 11:34:33;;;;;;;23.33;14.03;;;9.40;99.90;;;;;;5006499;28;20022;-81
2023/12/17 11:36:59;;;;;;;25.97;14.47;;;9.40;99.90;;;;;;5003692;28;20094;-81
2023/12/17 11:39:29;;;;;;;26.97;16.37;;;9.50;99.90;;;;;;5003888;28;20029;-81
2023/12/17 11:41:55;;;;;;;25.40;15.17;;;9.50;99.90;;;;;;5004436;28;20061;-81
2023/12/17 11:44:21;;;;;;;25.17;16.10;;;9.60;99.90;;;;;;5006325;28;20030;-81
2023/12/17 11:46:51;;;;;;;26.20;15.97;;;9.60;99.90;;;;;;5006869;28;20147;-81
2023/12/17 11:49:24;;;;;;;26.40;16.20;;;9.60;99.90;;;;;;5006176;28;20077;-81
2023/12/17 11:51:50;;;;;;;28.17;16.00;;;9.70;99.90;;;;;;5007258;28;20064;-81
2023/12/17 11:54:17;;;;;;;25.70;15.20;;;9.80;99.90;;;;;;5005759;28;20052;-83
2023/12/17 11:56:43;;;;;;;23.42;14.68;;;9.90;99.90;;;;;;5024172;28;20037;-80
2023/12/17 11:59:09;;;;;;;22.63;14.73;;;10.00;99.90;;;;;;5006149;28;20033;-82
2023/12/17 12:01:34;;;;;;;24.50;14.85;;;10.30;99.90;;;;;;5006077;28;20121;-82
2023/12/17 12:04:00;;;;;;;26.73;15.40;;;10.60;99.90;;;;;;5006600;28;20034;-82
2023/12/17 12:06:26;;;;;;;22.73;14.50;;;10.70;99.90;;;;;;5005855;28;20101;-81
2023/12/17 12:08:52;;;;;;;25.42;14.23;;;10.80;99.90;;;;;;5024390;28;20478;-81
2023/12/17 12:11:19;;;;;;;20.85;14.13;;;11.20;99.90;;;;;;5005414;28;20052;-81
2023/12/17 12:13:50;;;;;;;19.92;12.63;;;11.70;99.90;;;;;;5005962;28;20022;-82
2023/12/17 12:16:17;;;;;;;23.75;12.75;;;12.10;99.90;;;;;;5005700;28;20481;-82
2023/12/17 12:18:43;;;;;;;20.83;12.85;;;12.50;99.90;;;;;;5005776;28;20045;-81
2023/12/17 12:21:16;;;;;;;19.58;13.38;;;12.70;99.90;;;;;;5024131;28;20026;-81
2023/12/17 12:23:52;;;;;;;20.70;12.75;;;13.00;99.90;;;;;;5005040;28;20045;-82
2023/12/17 12:26:18;;;;;;;18.13;11.23;;;13.40;99.90;;;;;;5005728;28;20018;-81
2023/12/17 12:28:50;;;;;;;19.17;11.65;;;13.80;99.90;;;;;;5005291;28;20029;-81